sensor_id;sensor_type;location;lat;lon;timestamp;temperature;humidity
7738;DHT22;29398;45.328;5.558;2023-07-28T00:00:24;23.70;82.30
7738;DHT22;29398;45.328;5.558;2023-07-28T00:01:25;23.70;82.30
7738;DHT22;29398;45.328;5.558;2023-07-28T00:02:27;23.70;82.90
7738;DHT22;29398;45.328;5.558;2023-07-28T00:03:28;23.70;83.10
7738;DHT22;29398;45.328;5.558;2023-07-28T00:04:30;23.70;83.40
7738;DHT22;29398;45.328;5.558;2023-07-28T00:05:31;23.70;83.20
7738;DHT22;29398;45.328;5.558;2023-07-28T00:06:32;23.70;83.50
7738;DHT22;29398;45.328;5.558;2023-07-28T00:07:34;23.70;83.90
7738;DHT22;29398;45.328;5.558;2023-07-28T00:09:39;23.60;83.70
7738;DHT22;29398;45.328;5.558;2023-07-28T00:10:41;23.70;84.30
7738;DHT22;29398;45.328;5.558;2023-07-28T00:11:43;23.60;84.50
7738;DHT22;29398;45.328;5.558;2023-07-28T00:12:44;23.60;84.40
7738;DHT22;29398;45.328;5.558;2023-07-28T00:13:46;23.60;85.10
7738;DHT22;29398;45.328;5.558;2023-07-28T00:14:46;23.60;85.30
7738;DHT22;29398;45.328;5.558;2023-07-28T00:15:50;23.60;85.70
7738;DHT22;29398;45.328;5.558;2023-07-28T00:16:51;23.60;85.60
7738;DHT22;29398;45.328;5.558;2023-07-28T00:17:53;23.60;86.00
7738;DHT22;29398;45.328;5.558;2023-07-28T00:18:54;23.60;86.20
7738;DHT22;29398;45.328;5.558;2023-07-28T00:19:56;23.60;86.50
7738;DHT22;29398;45.328;5.558;2023-07-28T00:20:57;23.60;86.60
7738;DHT22;29398;45.328;5.558;2023-07-28T00:21:59;23.60;86.70
7738;DHT22;29398;45.328;5.558;2023-07-28T00:23:00;23.60;86.60
7738;DHT22;29398;45.328;5.558;2023-07-28T00:24:02;23.50;87.00
7738;DHT22;29398;45.328;5.558;2023-07-28T00:25:04;23.60;87.50
7738;DHT22;29398;45.328;5.558;2023-07-28T00:26:06;23.60;87.30
7738;DHT22;29398;45.328;5.558;2023-07-28T00:27:07;23.50;87.50
7738;DHT22;29398;45.328;5.558;2023-07-28T00:28:09;23.60;87.80
7738;DHT22;29398;45.328;5.558;2023-07-28T00:29:10;23.50;88.00
7738;DHT22;29398;45.328;5.558;2023-07-28T00:30:12;23.50;88.00
7738;DHT22;29398;45.328;5.558;2023-07-28T00:31:14;23.50;88.20
7738;DHT22;29398;45.328;5.558;2023-07-28T00:32:16;23.50;88.50
7738;DHT22;29398;45.328;5.558;2023-07-28T00:33:17;23.40;88.80
7738;DHT22;29398;45.328;5.558;2023-07-28T00:34:20;23.40;88.90
7738;DHT22;29398;45.328;5.558;2023-07-28T00:35:21;23.40;89.30
7738;DHT22;29398;45.328;5.558;2023-07-28T00:36:23;23.40;89.60
7738;DHT22;29398;45.328;5.558;2023-07-28T00:37:24;23.40;90.00
7738;DHT22;29398;45.328;5.558;2023-07-28T00:38:26;23.30;89.80
7738;DHT22;29398;45.328;5.558;2023-07-28T00:39:31;23.30;90.00
7738;DHT22;29398;45.328;5.558;2023-07-28T00:40:35;23.30;90.10
7738;DHT22;29398;45.328;5.558;2023-07-28T00:41:36;23.30;90.20
7738;DHT22;29398;45.328;5.558;2023-07-28T00:42:38;23.30;90.20
7738;DHT22;29398;45.328;5.558;2023-07-28T00:43:39;23.30;90.40
7738;DHT22;29398;45.328;5.558;2023-07-28T00:44:41;23.30;90.50
7738;DHT22;29398;45.328;5.558;2023-07-28T00:45:43;23.30;90.70
7738;DHT22;29398;45.328;5.558;2023-07-28T00:46:47;23.30;90.80
7738;DHT22;29398;45.328;5.558;2023-07-28T00:47:48;23.30;90.90
7738;DHT22;29398;45.328;5.558;2023-07-28T00:48:50;23.20;91.20
7738;DHT22;29398;45.328;5.558;2023-07-28T00:49:52;23.20;91.00
7738;DHT22;29398;45.328;5.558;2023-07-28T00:50:54;23.30;91.00
7738;DHT22;29398;45.328;5.558;2023-07-28T00:51:55;23.20;91.20
7738;DHT22;29398;45.328;5.558;2023-07-28T00:52:58;23.20;91.60
7738;DHT22;29398;45.328;5.558;2023-07-28T00:53:59;23.20;91.40
7738;DHT22;29398;45.328;5.558;2023-07-28T00:55:03;23.20;91.50
7738;DHT22;29398;45.328;5.558;2023-07-28T00:56:05;23.20;91.70
7738;DHT22;29398;45.328;5.558;2023-07-28T00:57:08;23.20;91.80
7738;DHT22;29398;45.328;5.558;2023-07-28T00:58:09;23.10;91.80
7738;DHT22;29398;45.328;5.558;2023-07-28T00:59:11;23.10;91.90
7738;DHT22;29398;45.328;5.558;2023-07-28T01:00:13;23.10;92.20
7738;DHT22;29398;45.328;5.558;2023-07-28T01:01:15;23.10;92.20
7738;DHT22;29398;45.328;5.558;2023-07-28T01:02:17;23.10;92.30
7738;DHT22;29398;45.328;5.558;2023-07-28T01:03:20;23.00;92.40
7738;DHT22;29398;45.328;5.558;2023-07-28T01:04:23;23.00;92.50
7738;DHT22;29398;45.328;5.558;2023-07-28T01:05:28;23.00;92.70
7738;DHT22;29398;45.328;5.558;2023-07-28T01:06:37;23.00;92.70
7738;DHT22;29398;45.328;5.558;2023-07-28T01:07:47;23.00;92.90
7738;DHT22;29398;45.328;5.558;2023-07-28T01:08:56;22.90;93.00
7738;DHT22;29398;45.328;5.558;2023-07-28T01:10:01;22.90;93.10
7738;DHT22;29398;45.328;5.558;2023-07-28T01:11:03;22.90;93.90
7738;DHT22;29398;45.328;5.558;2023-07-28T01:12:08;22.90;93.40
7738;DHT22;29398;45.328;5.558;2023-07-28T01:13:09;22.90;93.50
7738;DHT22;29398;45.328;5.558;2023-07-28T01:14:11;22.80;93.20
7738;DHT22;29398;45.328;5.558;2023-07-28T01:15:12;22.90;93.90
7738;DHT22;29398;45.328;5.558;2023-07-28T01:16:15;22.90;93.70
7738;DHT22;29398;45.328;5.558;2023-07-28T01:17:18;22.90;93.80
7738;DHT22;29398;45.328;5.558;2023-07-28T01:18:20;22.80;94.60
7738;DHT22;29398;45.328;5.558;2023-07-28T01:19:21;22.90;94.10
7738;DHT22;29398;45.328;5.558;2023-07-28T01:20:25;22.50;94.00
7738;DHT22;29398;45.328;5.558;2023-07-28T01:21:31;22.80;94.50
7738;DHT22;29398;45.328;5.558;2023-07-28T01:22:47;22.80;94.30
7738;DHT22;29398;45.328;5.558;2023-07-28T01:23:55;22.80;94.80
7738;DHT22;29398;45.328;5.558;2023-07-28T01:25:06;22.70;94.70
7738;DHT22;29398;45.328;5.558;2023-07-28T01:26:11;22.70;95.00
7738;DHT22;29398;45.328;5.558;2023-07-28T01:27:15;22.70;95.10
7738;DHT22;29398;45.328;5.558;2023-07-28T01:28:18;22.60;95.10
7738;DHT22;29398;45.328;5.558;2023-07-28T01:29:21;22.60;95.20
7738;DHT22;29398;45.328;5.558;2023-07-28T01:30:23;22.60;95.40
7738;DHT22;29398;45.328;5.558;2023-07-28T01:31:26;22.50;95.50
7738;DHT22;29398;45.328;5.558;2023-07-28T01:32:27;22.50;96.10
7738;DHT22;29398;45.328;5.558;2023-07-28T01:33:30;22.50;95.80
7738;DHT22;29398;45.328;5.558;2023-07-28T01:34:31;22.50;96.00
7738;DHT22;29398;45.328;5.558;2023-07-28T01:35:33;22.50;96.50
7738;DHT22;29398;45.328;5.558;2023-07-28T01:36:34;22.50;96.40
7738;DHT22;29398;45.328;5.558;2023-07-28T01:37:36;22.40;96.40
7738;DHT22;29398;45.328;5.558;2023-07-28T01:38:37;22.40;96.90
7738;DHT22;29398;45.328;5.558;2023-07-28T01:39:39;22.40;96.70
7738;DHT22;29398;45.328;5.558;2023-07-28T01:40:40;22.30;96.80
7738;DHT22;29398;45.328;5.558;2023-07-28T01:41:40;22.30;96.90
7738;DHT22;29398;45.328;5.558;2023-07-28T01:42:46;22.30;96.90
7738;DHT22;29398;45.328;5.558;2023-07-28T01:43:47;22.40;96.90
7738;DHT22;29398;45.328;5.558;2023-07-28T01:44:50;22.30;97.00
7738;DHT22;29398;45.328;5.558;2023-07-28T01:45:51;22.30;97.00
7738;DHT22;29398;45.328;5.558;2023-07-28T01:46:53;22.30;97.20
7738;DHT22;29398;45.328;5.558;2023-07-28T01:47:53;22.30;97.40
7738;DHT22;29398;45.328;5.558;2023-07-28T01:48:56;22.20;97.50
7738;DHT22;29398;45.328;5.558;2023-07-28T01:49:57;22.30;97.40
7738;DHT22;29398;45.328;5.558;2023-07-28T01:50:59;22.20;97.50
7738;DHT22;29398;45.328;5.558;2023-07-28T01:51:59;22.20;97.60
7738;DHT22;29398;45.328;5.558;2023-07-28T01:53:02;22.30;97.60
7738;DHT22;29398;45.328;5.558;2023-07-28T01:54:03;22.20;97.50
7738;DHT22;29398;45.328;5.558;2023-07-28T01:55:06;22.20;97.60
7738;DHT22;29398;45.328;5.558;2023-07-28T01:56:07;22.20;97.60
7738;DHT22;29398;45.328;5.558;2023-07-28T01:57:09;22.20;97.80
7738;DHT22;29398;45.328;5.558;2023-07-28T01:58:11;22.30;98.00
7738;DHT22;29398;45.328;5.558;2023-07-28T01:59:14;22.20;98.20
7738;DHT22;29398;45.328;5.558;2023-07-28T02:00:15;22.30;98.20
7738;DHT22;29398;45.328;5.558;2023-07-28T02:01:16;22.30;98.30
7738;DHT22;29398;45.328;5.558;2023-07-28T02:02:19;22.20;98.40
7738;DHT22;29398;45.328;5.558;2023-07-28T02:03:20;22.30;98.50
7738;DHT22;29398;45.328;5.558;2023-07-28T02:04:22;22.30;98.50
7738;DHT22;29398;45.328;5.558;2023-07-28T02:05:23;22.30;98.60
7738;DHT22;29398;45.328;5.558;2023-07-28T02:06:24;22.30;98.90
7738;DHT22;29398;45.328;5.558;2023-07-28T02:07:27;22.30;98.80
7738;DHT22;29398;45.328;5.558;2023-07-28T02:08:28;22.40;98.90
7738;DHT22;29398;45.328;5.558;2023-07-28T02:09:30;22.30;99.30
7738;DHT22;29398;45.328;5.558;2023-07-28T02:10:31;22.30;99.10
7738;DHT22;29398;45.328;5.558;2023-07-28T02:11:33;22.30;99.20
7738;DHT22;29398;45.328;5.558;2023-07-28T02:12:34;22.30;99.40
7738;DHT22;29398;45.328;5.558;2023-07-28T02:13:37;22.30;99.50
7738;DHT22;29398;45.328;5.558;2023-07-28T02:14:39;22.30;99.50
7738;DHT22;29398;45.328;5.558;2023-07-28T02:15:40;22.30;99.50
7738;DHT22;29398;45.328;5.558;2023-07-28T02:16:41;22.30;99.60
7738;DHT22;29398;45.328;5.558;2023-07-28T02:17:43;22.20;99.60
7738;DHT22;29398;45.328;5.558;2023-07-28T02:18:44;22.20;99.90
7738;DHT22;29398;45.328;5.558;2023-07-28T02:19:46;22.20;99.80
7738;DHT22;29398;45.328;5.558;2023-07-28T02:20:48;22.20;99.90
7738;DHT22;29398;45.328;5.558;2023-07-28T02:21:50;22.20;99.90
7738;DHT22;29398;45.328;5.558;2023-07-28T02:22:51;22.20;99.90
7738;DHT22;29398;45.328;5.558;2023-07-28T02:23:53;22.20;99.90
7738;DHT22;29398;45.328;5.558;2023-07-28T02:24:54;22.20;99.90
7738;DHT22;29398;45.328;5.558;2023-07-28T02:25:56;22.10;99.90
7738;DHT22;29398;45.328;5.558;2023-07-28T02:26:57;22.10;99.90
7738;DHT22;29398;45.328;5.558;2023-07-28T02:28:00;22.10;99.90
7738;DHT22;29398;45.328;5.558;2023-07-28T02:29:05;22.10;99.90
7738;DHT22;29398;45.328;5.558;2023-07-28T02:30:06;22.10;99.90
7738;DHT22;29398;45.328;5.558;2023-07-28T02:31:09;22.10;99.90
7738;DHT22;29398;45.328;5.558;2023-07-28T02:32:10;22.10;99.90
7738;DHT22;29398;45.328;5.558;2023-07-28T02:33:12;22.10;99.90
7738;DHT22;29398;45.328;5.558;2023-07-28T02:34:13;22.00;99.90
7738;DHT22;29398;45.328;5.558;2023-07-28T02:35:15;22.00;99.90
7738;DHT22;29398;45.328;5.558;2023-07-28T02:36:16;22.00;99.90
7738;DHT22;29398;45.328;5.558;2023-07-28T02:37:18;22.00;99.90
7738;DHT22;29398;45.328;5.558;2023-07-28T02:38:19;22.00;99.90
7738;DHT22;29398;45.328;5.558;2023-07-28T02:39:21;22.00;99.90
7738;DHT22;29398;45.328;5.558;2023-07-28T02:40:22;22.00;99.90
7738;DHT22;29398;45.328;5.558;2023-07-28T02:41:24;22.00;99.90
7738;DHT22;29398;45.328;5.558;2023-07-28T02:42:25;22.00;99.90
7738;DHT22;29398;45.328;5.558;2023-07-28T02:43:27;22.10;99.90
7738;DHT22;29398;45.328;5.558;2023-07-28T02:44:29;22.10;99.90
7738;DHT22;29398;45.328;5.558;2023-07-28T02:45:31;22.10;99.90
7738;DHT22;29398;45.328;5.558;2023-07-28T02:46:32;22.10;99.90
7738;DHT22;29398;45.328;5.558;2023-07-28T02:47:34;22.10;99.90
7738;DHT22;29398;45.328;5.558;2023-07-28T02:48:35;22.10;99.90
7738;DHT22;29398;45.328;5.558;2023-07-28T02:49:37;22.10;99.90
7738;DHT22;29398;45.328;5.558;2023-07-28T02:50:38;22.10;99.90
7738;DHT22;29398;45.328;5.558;2023-07-28T02:51:40;22.10;99.90
7738;DHT22;29398;45.328;5.558;2023-07-28T02:52:42;22.10;99.90
7738;DHT22;29398;45.328;5.558;2023-07-28T02:53:44;22.10;99.90
7738;DHT22;29398;45.328;5.558;2023-07-28T02:54:45;22.10;99.90
7738;DHT22;29398;45.328;5.558;2023-07-28T02:55:48;22.10;99.90
7738;DHT22;29398;45.328;5.558;2023-07-28T02:56:49;22.10;99.90
7738;DHT22;29398;45.328;5.558;2023-07-28T02:57:51;22.10;99.90
7738;DHT22;29398;45.328;5.558;2023-07-28T02:58:52;22.10;99.90
7738;DHT22;29398;45.328;5.558;2023-07-28T02:59:55;22.10;99.90
7738;DHT22;29398;45.328;5.558;2023-07-28T03:00:56;22.10;99.90
7738;DHT22;29398;45.328;5.558;2023-07-28T03:02:07;22.10;99.90
7738;DHT22;29398;45.328;5.558;2023-07-28T03:03:09;22.10;99.90
7738;DHT22;29398;45.328;5.558;2023-07-28T03:04:12;22.10;99.90
7738;DHT22;29398;45.328;5.558;2023-07-28T03:05:40;19.90;99.90
7738;DHT22;29398;45.328;5.558;2023-07-28T03:06:56;22.10;99.90
7738;DHT22;29398;45.328;5.558;2023-07-28T03:07:57;22.10;99.90
7738;DHT22;29398;45.328;5.558;2023-07-28T03:08:59;22.10;99.90
7738;DHT22;29398;45.328;5.558;2023-07-28T03:10:21;22.10;99.90
7738;DHT22;29398;45.328;5.558;2023-07-28T03:11:23;22.10;99.90
7738;DHT22;29398;45.328;5.558;2023-07-28T03:12:25;22.10;99.90
7738;DHT22;29398;45.328;5.558;2023-07-28T03:13:27;22.00;99.90
7738;DHT22;29398;45.328;5.558;2023-07-28T03:14:28;22.00;99.90
7738;DHT22;29398;45.328;5.558;2023-07-28T03:15:31;22.00;99.90
7738;DHT22;29398;45.328;5.558;2023-07-28T03:16:33;21.90;99.90
7738;DHT22;29398;45.328;5.558;2023-07-28T03:17:35;21.80;99.90
7738;DHT22;29398;45.328;5.558;2023-07-28T03:18:36;21.70;99.90
7738;DHT22;29398;45.328;5.558;2023-07-28T03:19:38;21.70;99.90
7738;DHT22;29398;45.328;5.558;2023-07-28T03:20:39;21.60;99.90
7738;DHT22;29398;45.328;5.558;2023-07-28T03:21:41;21.60;99.90
7738;DHT22;29398;45.328;5.558;2023-07-28T03:22:43;21.60;99.90
7738;DHT22;29398;45.328;5.558;2023-07-28T03:23:44;21.60;99.90
7738;DHT22;29398;45.328;5.558;2023-07-28T03:24:46;21.60;99.90
7738;DHT22;29398;45.328;5.558;2023-07-28T03:25:48;21.60;99.90
7738;DHT22;29398;45.328;5.558;2023-07-28T03:26:51;21.60;99.90
7738;DHT22;29398;45.328;5.558;2023-07-28T03:27:52;21.60;99.90
7738;DHT22;29398;45.328;5.558;2023-07-28T03:28:54;21.60;99.90
7738;DHT22;29398;45.328;5.558;2023-07-28T03:29:55;21.60;99.90
7738;DHT22;29398;45.328;5.558;2023-07-28T03:30:59;21.60;99.90
7738;DHT22;29398;45.328;5.558;2023-07-28T03:32:01;21.60;99.90
7738;DHT22;29398;45.328;5.558;2023-07-28T03:33:02;21.60;99.90
7738;DHT22;29398;45.328;5.558;2023-07-28T03:34:04;21.60;99.90
7738;DHT22;29398;45.328;5.558;2023-07-28T03:35:07;21.60;99.90
7738;DHT22;29398;45.328;5.558;2023-07-28T03:36:14;21.60;99.90
7738;DHT22;29398;45.328;5.558;2023-07-28T03:37:16;21.60;99.90
7738;DHT22;29398;45.328;5.558;2023-07-28T03:38:17;21.60;99.90
7738;DHT22;29398;45.328;5.558;2023-07-28T03:39:20;21.60;99.90
7738;DHT22;29398;45.328;5.558;2023-07-28T03:40:23;21.60;99.90
7738;DHT22;29398;45.328;5.558;2023-07-28T03:41:27;21.60;99.90
7738;DHT22;29398;45.328;5.558;2023-07-28T03:42:28;21.50;99.90
7738;DHT22;29398;45.328;5.558;2023-07-28T03:43:30;21.50;99.90
7738;DHT22;29398;45.328;5.558;2023-07-28T03:44:31;21.50;99.90
7738;DHT22;29398;45.328;5.558;2023-07-28T03:45:34;21.40;99.90
7738;DHT22;29398;45.328;5.558;2023-07-28T03:46:37;21.50;99.90
7738;DHT22;29398;45.328;5.558;2023-07-28T03:47:39;21.40;99.90
7738;DHT22;29398;45.328;5.558;2023-07-28T03:48:40;21.40;99.90
7738;DHT22;29398;45.328;5.558;2023-07-28T03:49:42;21.40;99.90
7738;DHT22;29398;45.328;5.558;2023-07-28T03:50:43;21.40;99.90
7738;DHT22;29398;45.328;5.558;2023-07-28T03:51:46;21.40;99.90
7738;DHT22;29398;45.328;5.558;2023-07-28T03:52:47;21.40;99.90
7738;DHT22;29398;45.328;5.558;2023-07-28T03:53:49;21.40;99.90
7738;DHT22;29398;45.328;5.558;2023-07-28T03:54:50;21.40;99.90
7738;DHT22;29398;45.328;5.558;2023-07-28T03:55:52;21.40;99.90
7738;DHT22;29398;45.328;5.558;2023-07-28T03:56:54;21.40;99.90
7738;DHT22;29398;45.328;5.558;2023-07-28T03:57:56;21.40;99.90
7738;DHT22;29398;45.328;5.558;2023-07-28T03:58:57;21.40;99.90
7738;DHT22;29398;45.328;5.558;2023-07-28T03:59:59;21.40;99.90
7738;DHT22;29398;45.328;5.558;2023-07-28T04:01:00;21.40;99.90
7738;DHT22;29398;45.328;5.558;2023-07-28T04:02:03;21.40;99.90
7738;DHT22;29398;45.328;5.558;2023-07-28T04:03:05;21.40;99.90
7738;DHT22;29398;45.328;5.558;2023-07-28T04:04:06;21.40;99.90
7738;DHT22;29398;45.328;5.558;2023-07-28T04:05:09;21.40;99.90
7738;DHT22;29398;45.328;5.558;2023-07-28T04:06:11;21.40;99.90
7738;DHT22;29398;45.328;5.558;2023-07-28T04:07:13;21.40;99.90
7738;DHT22;29398;45.328;5.558;2023-07-28T04:08:14;21.40;99.90
7738;DHT22;29398;45.328;5.558;2023-07-28T04:09:17;21.40;99.90
7738;DHT22;29398;45.328;5.558;2023-07-28T04:10:18;21.40;99.90
7738;DHT22;29398;45.328;5.558;2023-07-28T04:11:20;21.40;99.90
7738;DHT22;29398;45.328;5.558;2023-07-28T04:12:21;21.50;99.90
7738;DHT22;29398;45.328;5.558;2023-07-28T04:13:23;21.40;99.90
7738;DHT22;29398;45.328;5.558;2023-07-28T04:14:24;21.40;99.90
7738;DHT22;29398;45.328;5.558;2023-07-28T04:15:26;21.40;99.90
7738;DHT22;29398;45.328;5.558;2023-07-28T04:16:27;21.40;99.90
7738;DHT22;29398;45.328;5.558;2023-07-28T04:17:30;21.40;99.90
7738;DHT22;29398;45.328;5.558;2023-07-28T04:18:31;21.40;99.90
7738;DHT22;29398;45.328;5.558;2023-07-28T04:19:34;21.40;99.90
7738;DHT22;29398;45.328;5.558;2023-07-28T04:20:35;21.40;99.90
7738;DHT22;29398;45.328;5.558;2023-07-28T04:21:37;21.50;99.90
7738;DHT22;29398;45.328;5.558;2023-07-28T04:22:40;21.50;99.90
7738;DHT22;29398;45.328;5.558;2023-07-28T04:23:42;21.50;99.90
7738;DHT22;29398;45.328;5.558;2023-07-28T04:24:44;21.50;99.90
7738;DHT22;29398;45.328;5.558;2023-07-28T04:25:46;21.50;99.90
7738;DHT22;29398;45.328;5.558;2023-07-28T04:26:47;21.50;99.90
7738;DHT22;29398;45.328;5.558;2023-07-28T04:27:52;21.50;99.90
7738;DHT22;29398;45.328;5.558;2023-07-28T04:28:53;21.50;99.90
7738;DHT22;29398;45.328;5.558;2023-07-28T04:29:55;21.50;99.90
7738;DHT22;29398;45.328;5.558;2023-07-28T04:30:57;21.50;99.90
7738;DHT22;29398;45.328;5.558;2023-07-28T04:32:27;21.50;99.90
7738;DHT22;29398;45.328;5.558;2023-07-28T04:33:31;21.50;99.90
7738;DHT22;29398;45.328;5.558;2023-07-28T04:34:33;21.50;99.90
7738;DHT22;29398;45.328;5.558;2023-07-28T04:35:41;21.50;99.90
7738;DHT22;29398;45.328;5.558;2023-07-28T04:36:49;21.50;99.90
7738;DHT22;29398;45.328;5.558;2023-07-28T04:37:54;21.50;99.90
7738;DHT22;29398;45.328;5.558;2023-07-28T04:39:06;21.50;99.90
7738;DHT22;29398;45.328;5.558;2023-07-28T04:40:08;21.50;99.90
7738;DHT22;29398;45.328;5.558;2023-07-28T04:41:12;21.50;99.90
7738;DHT22;29398;45.328;5.558;2023-07-28T04:42:32;21.50;99.90
7738;DHT22;29398;45.328;5.558;2023-07-28T04:43:34;21.50;99.90
7738;DHT22;29398;45.328;5.558;2023-07-28T04:44:37;21.50;99.90
7738;DHT22;29398;45.328;5.558;2023-07-28T04:45:39;21.50;99.90
7738;DHT22;29398;45.328;5.558;2023-07-28T04:46:47;21.60;99.90
7738;DHT22;29398;45.328;5.558;2023-07-28T04:47:49;21.50;99.90
7738;DHT22;29398;45.328;5.558;2023-07-28T04:48:56;21.50;99.90
7738;DHT22;29398;45.328;5.558;2023-07-28T04:50:16;21.50;99.90
7738;DHT22;29398;45.328;5.558;2023-07-28T04:51:36;21.50;99.90
7738;DHT22;29398;45.328;5.558;2023-07-28T04:53:07;21.50;99.90
7738;DHT22;29398;45.328;5.558;2023-07-28T04:54:17;21.50;99.90
7738;DHT22;29398;45.328;5.558;2023-07-28T04:55:18;21.50;99.90
7738;DHT22;29398;45.328;5.558;2023-07-28T04:56:20;21.50;99.90
7738;DHT22;29398;45.328;5.558;2023-07-28T04:57:21;21.50;99.90
7738;DHT22;29398;45.328;5.558;2023-07-28T04:58:23;21.50;99.90
7738;DHT22;29398;45.328;5.558;2023-07-28T04:59:27;21.60;99.90
7738;DHT22;29398;45.328;5.558;2023-07-28T05:00:29;21.60;99.90
7738;DHT22;29398;45.328;5.558;2023-07-28T05:01:30;21.60;99.90
7738;DHT22;29398;45.328;5.558;2023-07-28T05:02:32;21.60;99.90
7738;DHT22;29398;45.328;5.558;2023-07-28T05:03:33;21.60;99.90
7738;DHT22;29398;45.328;5.558;2023-07-28T05:04:55;21.60;99.90
7738;DHT22;29398;45.328;5.558;2023-07-28T05:05:56;21.60;99.90
7738;DHT22;29398;45.328;5.558;2023-07-28T05:06:58;21.50;99.90
7738;DHT22;29398;45.328;5.558;2023-07-28T05:07:59;21.60;99.90
7738;DHT22;29398;45.328;5.558;2023-07-28T05:09:01;21.50;99.90
7738;DHT22;29398;45.328;5.558;2023-07-28T05:10:10;21.60;99.90
7738;DHT22;29398;45.328;5.558;2023-07-28T05:11:12;21.60;99.90
7738;DHT22;29398;45.328;5.558;2023-07-28T05:12:13;21.60;99.90
7738;DHT22;29398;45.328;5.558;2023-07-28T05:13:21;21.60;99.90
7738;DHT22;29398;45.328;5.558;2023-07-28T05:14:29;21.60;99.90
7738;DHT22;29398;45.328;5.558;2023-07-28T05:15:31;21.60;99.90
7738;DHT22;29398;45.328;5.558;2023-07-28T05:16:32;21.60;99.90
7738;DHT22;29398;45.328;5.558;2023-07-28T05:17:37;21.70;99.90
7738;DHT22;29398;45.328;5.558;2023-07-28T05:19:06;21.60;99.90
7738;DHT22;29398;45.328;5.558;2023-07-28T05:20:28;21.60;99.90
7738;DHT22;29398;45.328;5.558;2023-07-28T05:21:40;21.60;99.90
7738;DHT22;29398;45.328;5.558;2023-07-28T05:22:42;21.60;99.90
7738;DHT22;29398;45.328;5.558;2023-07-28T05:23:44;21.60;99.90
7738;DHT22;29398;45.328;5.558;2023-07-28T05:24:46;21.60;99.90
7738;DHT22;29398;45.328;5.558;2023-07-28T05:25:48;21.70;99.90
7738;DHT22;29398;45.328;5.558;2023-07-28T05:26:49;21.70;99.90
7738;DHT22;29398;45.328;5.558;2023-07-28T05:27:51;21.70;99.90
7738;DHT22;29398;45.328;5.558;2023-07-28T05:28:53;21.60;99.90
7738;DHT22;29398;45.328;5.558;2023-07-28T05:29:55;21.70;99.90
7738;DHT22;29398;45.328;5.558;2023-07-28T05:31:03;21.70;99.90
7738;DHT22;29398;45.328;5.558;2023-07-28T05:32:06;21.70;99.90
7738;DHT22;29398;45.328;5.558;2023-07-28T05:33:20;21.70;99.90
7738;DHT22;29398;45.328;5.558;2023-07-28T05:34:24;21.70;99.90
7738;DHT22;29398;45.328;5.558;2023-07-28T05:35:25;21.70;99.90
7738;DHT22;29398;45.328;5.558;2023-07-28T05:36:28;21.70;99.90
7738;DHT22;29398;45.328;5.558;2023-07-28T05:37:33;21.70;99.90
7738;DHT22;29398;45.328;5.558;2023-07-28T05:38:35;21.70;99.90
7738;DHT22;29398;45.328;5.558;2023-07-28T05:39:36;21.70;99.90
7738;DHT22;29398;45.328;5.558;2023-07-28T05:40:38;21.80;99.90
7738;DHT22;29398;45.328;5.558;2023-07-28T05:41:40;21.80;99.90
7738;DHT22;29398;45.328;5.558;2023-07-28T05:42:45;21.80;99.90
7738;DHT22;29398;45.328;5.558;2023-07-28T05:43:46;21.80;99.90
7738;DHT22;29398;45.328;5.558;2023-07-28T05:44:48;21.80;99.90
7738;DHT22;29398;45.328;5.558;2023-07-28T05:45:49;21.80;99.90
7738;DHT22;29398;45.328;5.558;2023-07-28T05:46:51;21.80;99.90
7738;DHT22;29398;45.328;5.558;2023-07-28T05:47:53;21.90;99.90
7738;DHT22;29398;45.328;5.558;2023-07-28T05:48:55;21.90;99.90
7738;DHT22;29398;45.328;5.558;2023-07-28T05:49:56;21.90;99.90
7738;DHT22;29398;45.328;5.558;2023-07-28T05:50:59;21.90;99.90
7738;DHT22;29398;45.328;5.558;2023-07-28T05:52:01;22.00;99.90
7738;DHT22;29398;45.328;5.558;2023-07-28T05:53:02;22.00;99.90
7738;DHT22;29398;45.328;5.558;2023-07-28T05:54:05;22.00;99.90
7738;DHT22;29398;45.328;5.558;2023-07-28T05:55:07;22.00;99.90
7738;DHT22;29398;45.328;5.558;2023-07-28T05:56:09;22.00;99.90
7738;DHT22;29398;45.328;5.558;2023-07-28T05:57:10;22.00;99.90
7738;DHT22;29398;45.328;5.558;2023-07-28T05:58:12;22.00;99.90
7738;DHT22;29398;45.328;5.558;2023-07-28T05:59:14;22.00;99.90
7738;DHT22;29398;45.328;5.558;2023-07-28T06:00:17;22.00;99.90
7738;DHT22;29398;45.328;5.558;2023-07-28T06:01:18;22.00;99.90
7738;DHT22;29398;45.328;5.558;2023-07-28T06:02:55;22.00;99.90
7738;DHT22;29398;45.328;5.558;2023-07-28T06:04:17;22.00;99.90
7738;DHT22;29398;45.328;5.558;2023-07-28T06:05:22;22.00;99.90
7738;DHT22;29398;45.328;5.558;2023-07-28T06:07:26;22.00;99.90
7738;DHT22;29398;45.328;5.558;2023-07-28T06:08:28;22.00;99.90
7738;DHT22;29398;45.328;5.558;2023-07-28T06:09:30;22.00;99.90
7738;DHT22;29398;45.328;5.558;2023-07-28T06:10:32;22.00;99.90
7738;DHT22;29398;45.328;5.558;2023-07-28T06:11:34;22.10;99.90
7738;DHT22;29398;45.328;5.558;2023-07-28T06:12:36;22.10;99.90
7738;DHT22;29398;45.328;5.558;2023-07-28T06:13:38;22.10;99.90
7738;DHT22;29398;45.328;5.558;2023-07-28T06:14:39;22.20;99.90
7738;DHT22;29398;45.328;5.558;2023-07-28T06:15:43;22.20;99.90
7738;DHT22;29398;45.328;5.558;2023-07-28T06:16:44;22.20;99.90
7738;DHT22;29398;45.328;5.558;2023-07-28T06:17:46;22.20;99.90
7738;DHT22;29398;45.328;5.558;2023-07-28T06:18:47;22.20;99.90
7738;DHT22;29398;45.328;5.558;2023-07-28T06:19:54;22.30;99.90
7738;DHT22;29398;45.328;5.558;2023-07-28T06:20:55;22.30;99.90
7738;DHT22;29398;45.328;5.558;2023-07-28T06:21:57;22.30;99.90
7738;DHT22;29398;45.328;5.558;2023-07-28T06:23:00;22.40;99.90
7738;DHT22;29398;45.328;5.558;2023-07-28T06:24:03;22.40;99.90
7738;DHT22;29398;45.328;5.558;2023-07-28T06:25:04;22.40;99.90
7738;DHT22;29398;45.328;5.558;2023-07-28T06:26:06;22.50;99.90
7738;DHT22;29398;45.328;5.558;2023-07-28T06:27:08;22.50;99.90
7738;DHT22;29398;45.328;5.558;2023-07-28T06:28:13;22.50;99.90
7738;DHT22;29398;45.328;5.558;2023-07-28T06:29:14;22.50;99.90
7738;DHT22;29398;45.328;5.558;2023-07-28T06:30:16;22.60;99.90
7738;DHT22;29398;45.328;5.558;2023-07-28T06:31:17;22.60;99.90
7738;DHT22;29398;45.328;5.558;2023-07-28T06:32:19;22.50;99.90
7738;DHT22;29398;45.328;5.558;2023-07-28T06:33:24;22.60;99.90
7738;DHT22;29398;45.328;5.558;2023-07-28T06:34:26;22.60;99.90
7738;DHT22;29398;45.328;5.558;2023-07-28T06:35:27;22.50;99.90
7738;DHT22;29398;45.328;5.558;2023-07-28T06:36:29;22.50;99.90
7738;DHT22;29398;45.328;5.558;2023-07-28T06:37:30;22.50;99.90
7738;DHT22;29398;45.328;5.558;2023-07-28T06:38:33;22.40;99.90
7738;DHT22;29398;45.328;5.558;2023-07-28T06:39:35;22.40;99.90
7738;DHT22;29398;45.328;5.558;2023-07-28T06:40:37;22.50;99.90
7738;DHT22;29398;45.328;5.558;2023-07-28T06:41:38;22.40;99.90
7738;DHT22;29398;45.328;5.558;2023-07-28T06:42:42;22.50;99.90
7738;DHT22;29398;45.328;5.558;2023-07-28T06:43:44;22.60;99.90
7738;DHT22;29398;45.328;5.558;2023-07-28T06:44:46;22.60;99.90
7738;DHT22;29398;45.328;5.558;2023-07-28T06:45:50;22.70;99.90
7738;DHT22;29398;45.328;5.558;2023-07-28T06:46:52;22.90;99.90